createdAt,value
2022-10-15T00:00:07.015Z,52.01
2022-10-15T00:15:09.510Z,51.30
2022-10-15T00:30:11.942Z,53.02
2022-10-15T00:45:15.845Z,54.17
2022-10-15T01:00:18.626Z,55.50
2022-10-15T01:15:25.514Z,56.44
2022-10-15T01:30:37.307Z,56.41
2022-10-15T01:45:51.575Z,55.96
2022-10-15T02:00:56.279Z,56.80
2022-10-15T02:16:00.689Z,58.21
2022-10-15T02:31:03.991Z,55.90
2022-10-15T02:46:07.958Z,55.33
2022-10-15T03:01:09.941Z,54.77
2022-10-15T03:16:12.538Z,55.10
2022-10-15T03:31:14.560Z,57.36
2022-10-15T03:46:16.686Z,59.72
2022-10-15T04:01:19.376Z,62.27
2022-10-15T04:16:21.218Z,60.13
2022-10-15T04:31:23.184Z,59.93
2022-10-15T04:46:25.387Z,57.55
2022-10-15T05:01:27.249Z,56.98
2022-10-15T05:16:30.362Z,52.58
2022-10-15T05:31:33.923Z,49.26
2022-10-15T05:46:35.839Z,45.78
2022-10-15T06:01:38.164Z,41.01
2022-10-15T06:16:40.005Z,37.48
2022-10-15T06:31:41.914Z,35.04
2022-10-15T06:46:43.698Z,34.52
2022-10-15T07:01:45.504Z,31.77
2022-10-15T07:16:47.289Z,30.80
2022-10-15T07:31:49.386Z,30.34
2022-10-15T07:46:51.193Z,29.33
2022-10-15T08:01:53.070Z,28.74
2022-10-15T08:16:54.849Z,26.56
2022-10-15T08:31:56.803Z,26.87
2022-10-15T08:47:39.535Z,25.37
2022-10-15T09:02:57.772Z,24.97
2022-10-15T09:17:59.615Z,25.39
2022-10-15T09:33:23.865Z,24.37
2022-10-15T09:48:26.468Z,25.84
2022-10-15T10:03:31.066Z,25.80
2022-10-15T10:18:33.372Z,24.45
2022-10-15T10:33:48.393Z,24.10
2022-10-15T10:48:52.161Z,24.87
2022-10-15T11:03:53.925Z,25.62
2022-10-15T11:35:54.973Z,23.84
2022-10-15T11:51:31.978Z,23.03
2022-10-15T12:06:40.540Z,25.02
2022-10-15T12:22:06.658Z,28.51
2022-10-15T12:37:18.557Z,31.20
2022-10-15T12:52:52.612Z,32.36
2022-10-15T13:07:56.207Z,32.30
2022-10-15T13:23:30.998Z,34.32
2022-10-15T13:38:47.308Z,34.43
2022-10-15T13:53:50.790Z,34.55
2022-10-15T14:09:35.124Z,35.46
2022-10-15T14:24:41.174Z,35.47
2022-10-15T14:39:43.023Z,36.96
2022-10-15T14:54:51.602Z,37.75
2022-10-15T15:09:54.546Z,37.77
2022-10-15T15:25:00.076Z,38.13
2022-10-15T15:40:02.222Z,39.28
2022-10-15T15:55:07.866Z,39.94
2022-10-15T16:10:20.871Z,40.71
2022-10-15T16:25:24.222Z,41.30
2022-10-15T16:40:28.456Z,42.71
2022-10-15T16:55:32.745Z,42.82
2022-10-15T17:10:42.441Z,43.58
2022-10-15T17:25:44.612Z,43.64
2022-10-15T17:40:46.557Z,43.73
2022-10-15T17:55:48.660Z,44.41
2022-10-15T18:10:52.453Z,45.44
2022-10-15T18:26:05.452Z,46.41
2022-10-15T18:41:16.568Z,47.88
2022-10-15T18:56:25.902Z,48.14
2022-10-15T19:11:28.424Z,49.11
2022-10-15T19:26:30.365Z,49.29
2022-10-15T19:41:32.225Z,48.60
2022-10-15T19:56:34.865Z,48.43
2022-10-15T20:11:38.057Z,48.86
2022-10-15T20:26:40.685Z,49.27
2022-10-15T20:41:42.581Z,49.61
2022-10-15T20:56:45.325Z,49.93
2022-10-15T21:11:47.207Z,50.70
2022-10-15T21:26:49.083Z,51.61
2022-10-15T21:41:50.963Z,51.19
2022-10-15T21:56:52.962Z,51.27
2022-10-15T22:11:54.929Z,50.85
2022-10-15T22:26:57.005Z,51.16
2022-10-15T22:41:58.858Z,51.32
2022-10-15T22:57:00.841Z,51.19
2022-10-15T23:12:02.741Z,51.50
2022-10-15T23:27:04.587Z,51.93
2022-10-15T23:42:06.628Z,51.85
2022-10-15T23:57:08.609Z,52.37
